Time;durP1;ratioP1;P1;durP2;ratioP2;P2;SDS_P1;SDS_P2;PMS_P1;PMS_P2;Temp;Humidity;BMP_temperature;BMP_pressure;BME280_temperature;BME280_humidity;BME280_pressure;Samples;Min_cycle;Max_cycle;Signal;HPM_P1;HPM_P2
2022/09/16 00:00:54;;;;;;;;;;;;;;;;;;5084608;28;19921;-72
2022/09/16 00:03:19;;;;;;;;;;;;;;;;;;5078473;28;20307;-70
2022/09/16 00:05:45;;;;;;;;;;;;;;;;;;5060606;28;19962;-72
2022/09/16 00:08:10;;;;;;;;;;;;;;;;;;5082479;28;19916;-72
2022/09/16 00:10:35;;;;;;;;;;;;;;;;;;5073372;28;19912;-71
2022/09/16 00:13:00;;;;;;;;;;;;;;;;;;5068068;28;19916;-72
2022/09/16 00:15:25;;;;;;;;;;;;;;;;;;5074534;28;19916;-72
2022/09/16 00:17:51;;;;;;;;;;;;;;;;;;5071885;28;19928;-70
2022/09/16 00:20:16;;;;;;;;;;;;;;;;;;5075541;28;19916;-71
2022/09/16 00:22:41;;;;;;;;;;;;;;;;;;5071321;28;19922;-72
2022/09/16 00:25:06;;;;;;;;;;;;;;;;;;5065889;28;20003;-72
2022/09/16 00:27:31;;;;;;;;;;;;;;;;;;5073995;28;20253;-71
2022/09/16 00:29:56;;;;;;;;;;;;;;;;;;5064261;28;19987;-72
2022/09/16 00:32:23;;;;;;;;;;;;;;;;;;5061032;28;19912;-72
2022/09/16 00:34:48;;;;;;;;;;;;;;;;;;5092129;28;19923;-72
2022/09/16 00:37:14;;;;;;;;;;;;;;;;;;5088802;28;19913;-72
2022/09/16 00:39:39;;;;;;;;;;;;;;;;;;5074535;28;19969;-72
2022/09/16 00:42:04;;;;;;;;;;;;;;;;;;5065221;28;19922;-72
2022/09/16 00:44:29;;;;;;;;;;;;;;;;;;5089267;28;19920;-72
2022/09/16 00:46:54;;;;;;;;;;;;;;;;;;5086539;28;20063;-70
2022/09/16 00:49:20;;;;;;;;;;;;;;;;;;5082468;28;20300;-71
2022/09/16 00:51:46;;;;;;;;;;;;;;;;;;5078746;28;19908;-72
2022/09/16 00:54:11;;;;;;;;;;;;;;;;;;5083062;28;19969;-71
2022/09/16 00:56:37;;;;;;;;;;;;;;;;;;5058278;28;20018;-72
2022/09/16 00:59:02;;;;;;;;;;;;;;;;;;5061970;28;19932;-71
2022/09/16 01:01:28;;;;;;;;;;;;;;;;;;5072016;28;19924;-72
2022/09/16 01:03:53;;;;;;;;;;;;;;;;;;5083552;28;19912;-72
2022/09/16 01:06:18;;;;;;;;;;;;;;;;;;5057566;28;19909;-72
2022/09/16 01:08:43;;;;;;;;;;;;;;;;;;5080487;28;20432;-71
2022/09/16 01:11:08;;;;;;;;;;;;;;;;;;5053915;28;19908;-72
2022/09/16 01:13:33;;;;;;;;;;;;;;;;;;5068609;28;19916;-72
2022/09/16 01:15:59;;;;;;;;;;;;;;;;;;5068617;28;19935;-70
2022/09/16 01:18:24;;;;;;;;;;;;;;;;;;5067735;28;19916;-72
2022/09/16 01:20:49;;;;;;;;;;;;;;;;;;5070023;28;19948;-71
2022/09/16 01:23:14;;;;;;;;;;;;;;;;;;5042206;28;19923;-72
2022/09/16 01:25:39;;;;;;;;;;;;;;;;;;5034940;28;19916;-71
2022/09/16 01:28:04;;;;;;;;;;;;;;;;;;5040397;28;19913;-72
2022/09/16 01:30:30;;;;;;;;;;;;;;;;;;5066725;28;20030;-71
2022/09/16 01:32:55;;;;;;;;;;;;;;;;;;5045452;28;20327;-73
2022/09/16 01:35:20;;;;;;;;;;;;;;;;;;5058255;28;19921;-72
2022/09/16 01:37:45;;;;;;;;;;;;;;;;;;5062020;28;19919;-71
2022/09/16 01:40:10;;;;;;;;;;;;;;;;;;5061590;28;19913;-72
2022/09/16 01:42:35;;;;;;;;;;;;;;;;;;5066067;28;19947;-72
2022/09/16 01:45:00;;;;;;;;;;;;;;;;;;5044171;28;19916;-71
2022/09/16 01:47:27;;;;;;;;;;;;;;;;;;5040835;28;19912;-73
2022/09/16 01:49:52;;;;;;;;;;;;;;;;;;5063623;28;19912;-71
2022/09/16 01:52:18;;;;;;;;;;;;;;;;;;5061183;28;19920;-72
2022/09/16 01:54:43;;;;;;;;;;;;;;;;;;5042102;28;19923;-71
2022/09/16 01:57:08;;;;;;;;;;;;;;;;;;5054148;28;19935;-72
2022/09/16 01:59:33;;;;;;;;;;;;;;;;;;5057509;28;19970;-73
2022/09/16 02:01:58;;;;;;;;;;;;;;;;;;5061299;28;20319;-72
2022/09/16 02:04:23;;;;;;;;;;;;;;;;;;5050445;28;19919;-72
2022/09/16 02:06:48;;;;;;;;;;;;;;;;;;5039610;28;19919;-72
2022/09/16 02:09:14;;;;;;;;;;;;;;;;;;5045952;28;19948;-71
2022/09/16 02:11:39;;;;;;;;;;;;;;;;;;5040398;28;19920;-71
2022/09/16 02:14:04;;;;;;;;;;;;;;;;;;5045157;28;19920;-72
2022/09/16 02:16:29;;;;;;;;;;;;;;;;;;5057262;28;20376;-71
2022/09/16 02:18:54;;;;;;;;;;;;;;;;;;5063792;28;19919;-70
2022/09/16 02:21:19;;;;;;;;;;;;;;;;;;5062863;28;20215;-71
2022/09/16 02:23:44;;;;;;;;;;;;;;;;;;5052106;28;19936;-71
2022/09/16 02:26:10;;;;;;;;;;;;;;;;;;5042039;28;20317;-71
2022/09/16 02:28:35;;;;;;;;;;;;;;;;;;5034091;28;19915;-72
2022/09/16 02:31:00;;;;;;;;;;;;;;;;;;5033525;28;19916;-69
2022/09/16 02:33:26;;;;;;;;;;;;;;;;;;5061580;28;20285;-70
2022/09/16 02:35:51;;;;;;;;;;;;;;;;;;5041343;28;20428;-70
2022/09/16 02:38:16;;;;;;;;;;;;;;;;;;5052123;28;19912;-72
2022/09/16 02:40:41;;;;;;;;;;;;;;;;;;5044492;28;19919;-70
2022/09/16 02:43:06;;;;;;;;;;;;;;;;;;5060967;28;19912;-72
2022/09/16 02:45:31;;;;;;;;;;;;;;;;;;5052329;28;19917;-72
2022/09/16 02:47:56;;;;;;;;;;;;;;;;;;5043112;28;19913;-72
2022/09/16 02:50:22;;;;;;;;;;;;;;;;;;5058849;28;19920;-72
2022/09/16 02:52:47;;;;;;;;;;;;;;;;;;5055677;28;19912;-72
2022/09/16 02:55:12;;;;;;;;;;;;;;;;;;5053265;28;19917;-72
2022/09/16 02:57:37;;;;;;;;;;;;;;;;;;5054087;28;20383;-72
2022/09/16 03:00:02;;;;;;;;;;;;;;;;;;5033877;28;19959;-71
2022/09/16 03:02:27;;;;;;;;;;;;;;;;;;5046498;28;19917;-72
2022/09/16 03:04:53;;;;;;;;;;;;;;;;;;5057024;28;19913;-71
2022/09/16 03:07:18;;;;;;;;;;;;;;;;;;5041486;28;20027;-72
2022/09/16 03:09:43;;;;;;;;;;;;;;;;;;5060011;28;19958;-72
2022/09/16 03:12:08;;;;;;;;;;;;;;;;;;5041613;28;20055;-72
2022/09/16 03:14:35;;;;;;;;;;;;;;;;;;5039751;28;20369;-72
2022/09/16 03:17:00;;;;;;;;;;;;;;;;;;5058616;28;19925;-69
2022/09/16 03:19:25;;;;;;;;;;;;;;;;;;5064451;28;19924;-71
2022/09/16 03:21:50;;;;;;;;;;;;;;;;;;5061169;28;19966;-71
2022/09/16 03:24:15;;;;;;;;;;;;;;;;;;5051580;28;19919;-72
2022/09/16 03:26:40;;;;;;;;;;;;;;;;;;5045965;28;19956;-70
2022/09/16 03:29:06;;;;;;;;;;;;;;;;;;5058972;28;19916;-70
2022/09/16 03:31:31;;;;;;;;;;;;;;;;;;5057719;28;19919;-71
2022/09/16 03:33:56;;;;;;;;;;;;;;;;;;5064305;28;19999;-73
2022/09/16 03:36:21;;;;;;;;;;;;;;;;;;5041192;28;19935;-70
2022/09/16 03:38:47;;;;;;;;;;;;;;;;;;5061067;28;19919;-71
2022/09/16 03:41:12;;;;;;;;;;;;;;;;;;5061374;28;19909;-71
2022/09/16 03:43:37;;;;;;;;;;;;;;;;;;5051031;28;20353;-71
2022/09/16 03:46:03;;;;;;;;;;;;;;;;;;5051628;28;19921;-72
2022/09/16 03:48:28;;;;;;;;;;;;;;;;;;5042664;28;20411;-71
2022/09/16 03:50:53;;;;;;;;;;;;;;;;;;5037917;28;19913;-70
2022/09/16 03:53:18;;;;;;;;;;;;;;;;;;5069951;28;20304;-70
2022/09/16 03:55:43;;;;;;;;;;;;;;;;;;5056526;28;19966;-70
2022/09/16 03:58:08;;;;;;;;;;;;;;;;;;5044403;28;19964;-71
2022/09/16 04:00:33;;;;;;;;;;;;;;;;;;5054234;28;19923;-71
2022/09/16 04:02:59;;;;;;;;;;;;;;;;;;5044121;28;19916;-71
2022/09/16 04:05:24;;;;;;;;;;;;;;;;;;5036660;28;19965;-71
2022/09/16 04:07:49;;;;;;;;;;;;;;;;;;5036480;28;20035;-70
2022/09/16 04:10:14;;;;;;;;;;;;;;;;;;5036344;28;20059;-72
2022/09/16 04:12:39;;;;;;;;;;;;;;;;;;5039648;28;19928;-72
2022/09/16 04:15:04;;;;;;;;;;;;;;;;;;5042946;28;20392;-72
2022/09/16 04:17:30;;;;;;;;;;;;;;;;;;5075983;28;20297;-70
2022/09/16 04:19:55;;;;;;;;;;;;;;;;;;5071519;28;19913;-70
2022/09/16 04:22:20;;;;;;;;;;;;;;;;;;5061580;28;19916;-69
2022/09/16 04:24:45;;;;;;;;;;;;;;;;;;5091682;28;19917;-72
2022/09/16 04:27:10;;;;;;;;;;;;;;;;;;5088876;28;19919;-71
2022/09/16 04:29:35;;;;;;;;;;;;;;;;;;5060395;28;19951;-72
2022/09/16 04:32:00;;;;;;;;;;;;;;;;;;5061053;28;20355;-71
2022/09/16 04:34:26;;;;;;;;;;;;;;;;;;5055882;28;19917;-70
2022/09/16 04:36:51;;;;;;;;;;;;;;;;;;5058754;28;19912;-71
2022/09/16 04:39:16;;;;;;;;;;;;;;;;;;5082121;28;20390;-65
2022/09/16 04:41:41;;;;;;;;;;;;;;;;;;5063746;28;19947;-64
2022/09/16 04:44:06;;;;;;;;;;;;;;;;;;5077467;28;20257;-65
2022/09/16 04:46:31;;;;;;;;;;;;;;;;;;5079366;28;19920;-65
2022/09/16 04:48:57;;;;;;;;;;;;;;;;;;5085195;28;19912;-64
2022/09/16 04:51:22;;;;;;;;;;;;;;;;;;5053950;28;20361;-64
2022/09/16 04:53:47;;;;;;;;;;;;;;;;;;5063154;28;19916;-64
2022/09/16 04:56:14;;;;;;;;;;;;;;;;;;5079435;28;20395;-63
2022/09/16 04:58:39;;;;;;;;;;;;;;;;;;5061557;28;20218;-64
2022/09/16 05:01:04;;;;;;;;;;;;;;;;;;5078501;28;19912;-63
2022/09/16 05:03:29;;;;;;;;;;;;;;;;;;5063910;28;19923;-63
2022/09/16 05:05:55;;;;;;;;;;;;;;;;;;5074595;28;20008;-67
2022/09/16 05:08:20;;;;;;;;;;;;;;;;;;5066052;28;19927;-65
2022/09/16 05:10:45;;;;;;;;;;;;;;;;;;5076877;28;19923;-67
2022/09/16 05:13:10;;;;;;;;;;;;;;;;;;5077256;28;19916;-66
2022/09/16 05:15:35;;;;;;;;;;;;;;;;;;5064334;28;20328;-67
2022/09/16 05:18:00;;;;;;;;;;;;;;;;;;5076038;28;20333;-67
2022/09/16 05:20:25;;;;;;;;;;;;;;;;;;5098628;28;20368;-67
2022/09/16 05:22:51;;;;;;;;;;;;;;;;;;5083528;28;19912;-68
2022/09/16 05:25:16;;;;;;;;;;;;;;;;;;5081842;28;19916;-67
2022/09/16 05:27:41;;;;;;;;;;;;;;;;;;5081186;28;19912;-67
2022/09/16 05:30:06;;;;;;;;;;;;;;;;;;5072121;28;19920;-69
2022/09/16 05:32:32;;;;;;;;;;;;;;;;;;5080525;28;19978;-67
2022/09/16 05:34:57;;;;;;;;;;;;;;;;;;5080878;28;19912;-68
2022/09/16 05:37:22;;;;;;;;;;;;;;;;;;5086597;28;19912;-67
2022/09/16 05:39:48;;;;;;;;;;;;;;;;;;5080131;28;20361;-68
2022/09/16 05:42:13;;;;;;;;;;;;;;;;;;5053917;28;20313;-67
2022/09/16 05:44:38;;;;;;;;;;;;;;;;;;5059610;28;20011;-68
2022/09/16 05:47:03;;;;;;;;;;;;;;;;;;5078702;28;19939;-67
2022/09/16 05:49:28;;;;;;;;;;;;;;;;;;5077842;28;20352;-68
2022/09/16 05:51:53;;;;;;;;;;;;;;;;;;5064315;28;20099;-68
2022/09/16 05:54:19;;;;;;;;;;;;;;;;;;5065851;28;19979;-68
2022/09/16 05:56:44;;;;;;;;;;;;;;;;;;5067571;28;19912;-68
2022/09/16 05:59:09;;;;;;;;;;;;;;;;;;5082212;28;19908;-67
2022/09/16 06:01:34;;;;;;;;;;;;;;;;;;5062638;28;20499;-68
2022/09/16 06:03:59;;;;;;;;;;;;;;;;;;5070785;28;20384;-66
2022/09/16 06:06:25;;;;;;;;;;;;;;;;;;5078070;28;20454;-67
2022/09/16 06:08:50;;;;;;;;;;;;;;;;;;5074884;28;19917;-67
2022/09/16 06:11:15;;;;;;;;;;;;;;;;;;5074391;28;19958;-68
2022/09/16 06:13:40;;;;;;;;;;;;;;;;;;5059979;28;20330;-67
2022/09/16 06:16:05;;;;;;;;;;;;;;;;;;5060138;28;20258;-67
2022/09/16 06:18:30;;;;;;;;;;;;;;;;;;5094712;28;20352;-67
2022/09/16 06:20:55;;;;;;;;;;;;;;;;;;5063968;28;19920;-67
2022/09/16 06:23:21;;;;;;;;;;;;;;;;;;5087794;28;19916;-66
2022/09/16 06:25:46;;;;;;;;;;;;;;;;;;5060703;28;20716;-67
2022/09/16 06:28:11;;;;;;;;;;;;;;;;;;5055800;28;19954;-68
2022/09/16 06:30:36;;;;;;;;;;;;;;;;;;5064411;28;20390;-68
2022/09/16 06:33:01;;;;;;;;;;;;;;;;;;5092758;28;20295;-67
2022/09/16 06:35:26;;;;;;;;;;;;;;;;;;5076810;28;19912;-67
2022/09/16 06:37:52;;;;;;;;;;;;;;;;;;5055095;28;19999;-67
2022/09/16 06:40:17;;;;;;;;;;;;;;;;;;5054156;28;19912;-66
2022/09/16 06:42:42;;;;;;;;;;;;;;;;;;5072197;28;19944;-67
2022/09/16 06:45:07;;;;;;;;;;;;;;;;;;5079744;28;19908;-67
2022/09/16 06:47:32;;;;;;;;;;;;;;;;;;5096906;28;19912;-68
2022/09/16 06:49:58;;;;;;;;;;;;;;;;;;5111173;28;19908;-67
2022/09/16 06:52:23;;;;;;;;;;;;;;;;;;5108156;28;19914;-68
2022/09/16 06:54:49;;;;;;;;;;;;;;;;;;5072073;28;20593;-66
2022/09/16 06:57:14;;;;;;;;;;;;;;;;;;5065873;28;20065;-67
2022/09/16 06:59:40;;;;;;;;;;;;;;;;;;5070104;28;20051;-66
2022/09/16 07:02:05;;;;;;;;;;;;;;;;;;5083409;28;19916;-67
2022/09/16 07:04:30;;;;;;;;;;;;;;;;;;5086871;28;19946;-67
2022/09/16 07:06:57;;;;;;;;;;;;;;;;;;5084037;28;19912;-68
2022/09/16 07:09:22;;;;;;;;;;;;;;;;;;5071981;28;19999;-68
2022/09/16 07:11:47;;;;;;;;;;;;;;;;;;5083174;28;20121;-68
2022/09/16 07:14:12;;;;;;;;;;;;;;;;;;5075778;28;19916;-66
2022/09/16 07:16:37;;;;;;;;;;;;;;;;;;5059454;28;20012;-66
2022/09/16 07:19:03;;;;;;;;;;;;;;;;;;5071425;28;19994;-65
2022/09/16 07:21:29;;;;;;;;;;;;;;;;;;5065125;28;19916;-67
2022/09/16 07:23:54;;;;;;;;;;;;;;;;;;5072350;28;19917;-67
2022/09/16 07:26:19;;;;;;;;;;;;;;;;;;5061462;28;19921;-66
2022/09/16 07:28:47;;;;;;;;;;;;;;;;;;5053426;28;19913;-66
2022/09/16 07:31:12;;;;;;;;;;;;;;;;;;5072871;28;19920;-66
2022/09/16 07:33:38;;;;;;;;;;;;;;;;;;5058586;28;20319;-66
2022/09/16 07:36:04;;;;;;;;;;;;;;;;;;5084651;28;20420;-66
2022/09/16 07:38:29;;;;;;;;;;;;;;;;;;5069960;28;20387;-67
2022/09/16 07:40:54;;;;;;;;;;;;;;;;;;5077460;28;19908;-67
2022/09/16 07:43:19;;;;;;;;;;;;;;;;;;5053690;28;19913;-67
2022/09/16 07:45:44;;;;;;;;;;;;;;;;;;5072510;28;20313;-66
2022/09/16 07:48:09;;;;;;;;;;;;;;;;;;5061776;28;19923;-67
2022/09/16 07:50:35;;;;;;;;;;;;;;;;;;5094563;28;20236;-65
2022/09/16 07:53:00;;;;;;;;;;;;;;;;;;5088226;28;20364;-67
2022/09/16 07:55:26;;;;;;;;;;;;;;;;;;5096715;28;19964;-66
2022/09/16 07:57:51;;;;;;;;;;;;;;;;;;5067416;28;19917;-67
2022/09/16 08:00:16;;;;;;;;;;;;;;;;;;5078969;28;19908;-67
2022/09/16 08:02:41;;;;;;;;;;;;;;;;;;5078917;28;19916;-67
2022/09/16 08:05:06;;;;;;;;;;;;;;;;;;5094458;28;20041;-67
2022/09/16 08:07:31;;;;;;;;;;;;;;;;;;5075117;28;20376;-67
2022/09/16 08:09:56;;;;;;;;;;;;;;;;;;5065726;28;19919;-67
2022/09/16 08:12:22;;;;;;;;;;;;;;;;;;5093576;28;19912;-66
2022/09/16 08:14:47;;;;;;;;;;;;;;;;;;5078682;28;19981;-67
2022/09/16 08:17:12;;;;;;;;;;;;;;;;;;5065691;28;19990;-66
2022/09/16 08:19:38;;;;;;;;;;;;;;;;;;5088810;28;19912;-67
2022/09/16 08:22:03;;;;;;;;;;;;;;;;;;5079326;28;19912;-67
2022/09/16 08:24:28;;;;;;;;;;;;;;;;;;5088305;28;19920;-66
2022/09/16 08:26:53;;;;;;;;;;;;;;;;;;5062961;28;20323;-66
2022/09/16 08:29:21;;;;;;;;;;;;;;;;;;5060535;28;19960;-67
2022/09/16 08:31:46;;;;;;;;;;;;;;;;;;5069285;28;20279;-67
2022/09/16 08:34:11;;;;;;;;;;;;;;;;;;5082896;28;20396;-66
2022/09/16 08:36:36;;;;;;;;;;;;;;;;;;5079951;28;20023;-67
2022/09/16 08:39:01;;;;;;;;;;;;;;;;;;5077389;28;19916;-67
2022/09/16 08:41:27;;;;;;;;;;;;;;;;;;5060894;28;19920;-67
2022/09/16 08:43:52;;;;;;;;;;;;;;;;;;5078432;28;20362;-66
2022/09/16 08:46:17;;;;;;;;;;;;;;;;;;5058793;28;19943;-66
2022/09/16 08:48:42;;;;;;;;;;;;;;;;;;5076003;28;19908;-66
2022/09/16 08:51:07;;;;;;;;;;;;;;;;;;5058965;28;19923;-67
2022/09/16 08:53:32;;;;;;;;;;;;;;;;;;5060143;28;19916;-67
2022/09/16 08:55:57;;;;;;;;;;;;;;;;;;5064769;28;19920;-66
2022/09/16 08:58:23;;;;;;;;;;;;;;;;;;5057902;28;19913;-66
2022/09/16 09:00:48;;;;;;;;;;;;;;;;;;5079370;28;19912;-67
2022/09/16 09:03:13;;;;;;;;;;;;;;;;;;5062405;28;19916;-67
2022/09/16 09:05:39;;;;;;;;;;;;;;;;;;5073193;28;19919;-67
2022/09/16 09:08:04;;;;;;;;;;;;;;;;;;5056293;28;20364;-67
2022/09/16 09:10:30;;;;;;;;;;;;;;;;;;5073055;28;20015;-67
2022/09/16 09:12:55;;;;;;;;;;;;;;;;;;5077733;28;19913;-67
2022/09/16 09:15:20;;;;;;;;;;;;;;;;;;5083042;28;19920;-67
2022/09/16 09:17:45;;;;;;;;;;;;;;;;;;5071504;28;19979;-67
2022/09/16 09:20:11;;;;;;;;;;;;;;;;;;5063091;28;19924;-67
2022/09/16 09:22:36;;;;;;;;;;;;;;;;;;5113877;28;19912;-68
2022/09/16 09:25:01;;;;;;;;;;;;;;;;;;5080738;28;20053;-67
2022/09/16 09:27:30;;;;;;;;;;;;;;;;;;5065291;28;19913;-67
2022/09/16 09:29:55;;;;;;;;;;;;;;;;;;5070708;28;19908;-67
2022/09/16 09:32:20;;;;;;;;;;;;;;;;;;5057046;28;20023;-66
2022/09/16 09:34:45;;;;;;;;;;;;;;;;;;5081898;28;20335;-67
2022/09/16 09:37:10;;;;;;;;;;;;;;;;;;5073260;28;20003;-66
2022/09/16 09:39:35;;;;;;;;;;;;;;;;;;5081599;28;19908;-67
2022/09/16 09:42:00;;;;;;;;;;;;;;;;;;5057048;28;19923;-66
2022/09/16 09:44:26;;;;;;;;;;;;;;;;;;5063326;28;19916;-67
2022/09/16 09:46:51;;;;;;;;;;;;;;;;;;5074470;28;19912;-67
2022/09/16 09:49:16;;;;;;;;;;;;;;;;;;5083816;28;19912;-68
2022/09/16 09:51:41;;;;;;;;;;;;;;;;;;5072439;28;20003;-66
2022/09/16 09:54:06;;;;;;;;;;;;;;;;;;5060003;28;19961;-67
2022/09/16 09:56:31;;;;;;;;;;;;;;;;;;5088860;28;19996;-65
2022/09/16 09:58:57;;;;;;;;;;;;;;;;;;5076784;28;19920;-67
2022/09/16 10:01:22;;;;;;;;;;;;;;;;;;5072364;28;20016;-65
2022/09/16 10:03:47;;;;;;;;;;;;;;;;;;5067651;28;19920;-66
2022/09/16 10:06:12;;;;;;;;;;;;;;;;;;5088556;28;20519;-65
2022/09/16 10:08:37;;;;;;;;;;;;;;;;;;5082517;28;19927;-62
2022/09/16 10:11:02;;;;;;;;;;;;;;;;;;5068072;28;20495;-67
2022/09/16 10:13:28;;;;;;;;;;;;;;;;;;5072105;28;19993;-67
2022/09/16 10:15:54;;;;;;;;;;;;;;;;;;5071460;28;19920;-65
2022/09/16 10:18:19;;;;;;;;;;;;;;;;;;5073373;28;19920;-64
2022/09/16 10:20:44;;;;;;;;;;;;;;;;;;5054851;28;19912;-65
2022/09/16 10:23:09;;;;;;;;;;;;;;;;;;5075889;28;19919;-64
2022/09/16 10:25:34;;;;;;;;;;;;;;;;;;5073937;28;20010;-67
2022/09/16 10:28:00;;;;;;;;;;;;;;;;;;5073274;28;19931;-69
2022/09/16 10:30:25;;;;;;;;;;;;;;;;;;5075426;28;20003;-64
2022/09/16 10:32:50;;;;;;;;;;;;;;;;;;5079217;28;20359;-65
2022/09/16 10:35:15;;;;;;;;;;;;;;;;;;5077674;28;19923;-64
2022/09/16 10:37:40;;;;;;;;;;;;;;;;;;5070751;28;19920;-64
2022/09/16 10:40:06;;;;;;;;;;;;;;;;;;5057531;28;19923;-64
2022/09/16 10:42:31;;;;;;;;;;;;;;;;;;5073003;28;19946;-69
2022/09/16 10:44:56;;;;;;;;;;;;;;;;;;5056365;28;19916;-65
2022/09/16 10:47:21;;;;;;;;;;;;;;;;;;5070485;28;20388;-66
2022/09/16 10:49:47;;;;;;;;;;;;;;;;;;5062247;28;20365;-70
2022/09/16 10:52:12;;;;;;;;;;;;;;;;;;5071926;28;19912;-68
2022/09/16 10:54:37;;;;;;;;;;;;;;;;;;5072938;28;20329;-68
2022/09/16 10:57:02;;;;;;;;;;;;;;;;;;5081932;28;19912;-68
2022/09/16 10:59:28;;;;;;;;;;;;;;;;;;5069659;28;20186;-66
2022/09/16 11:01:53;;;;;;;;;;;;;;;;;;5059132;28;19919;-66
2022/09/16 11:04:18;;;;;;;;;;;;;;;;;;5078430;28;20621;-65
2022/09/16 11:06:43;;;;;;;;;;;;;;;;;;5075093;28;20402;-66
2022/09/16 11:09:08;;;;;;;;;;;;;;;;;;5068272;28;20434;-66
2022/09/16 11:11:33;;;;;;;;;;;;;;;;;;5073094;28;19918;-66
2022/09/16 11:13:58;;;;;;;;;;;;;;;;;;5061682;28;19924;-67
2022/09/16 11:16:23;;;;;;;;;;;;;;;;;;5076902;28;20343;-67
2022/09/16 11:18:49;;;;;;;;;;;;;;;;;;5074068;28;20296;-68
2022/09/16 11:21:14;;;;;;;;;;;;;;;;;;5072767;28;19924;-66
2022/09/16 11:23:39;;;;;;;;;;;;;;;;;;5073521;28;20424;-67
2022/09/16 11:26:04;;;;;;;;;;;;;;;;;;5078261;28;19951;-68
2022/09/16 11:28:29;;;;;;;;;;;;;;;;;;5073402;28;19924;-69
2022/09/16 11:30:55;;;;;;;;;;;;;;;;;;5075794;28;20006;-66
2022/09/16 11:33:21;;;;;;;;;;;;;;;;;;5064180;28;19927;-65
2022/09/16 11:35:46;;;;;;;;;;;;;;;;;;5079526;28;20265;-64
2022/09/16 11:38:11;;;;;;;;;;;;;;;;;;5062886;28;19973;-64
2022/09/16 11:40:36;;;;;;;;;;;;;;;;;;5057608;28;20006;-65
2022/09/16 11:43:01;;;;;;;;;;;;;;;;;;5079322;28;19916;-64
2022/09/16 11:45:26;;;;;;;;;;;;;;;;;;5074697;28;19924;-66
2022/09/16 11:47:51;;;;;;;;;;;;;;;;;;5072359;28;19916;-64
2022/09/16 11:50:17;;;;;;;;;;;;;;;;;;5057697;28;20383;-64
2022/09/16 11:52:42;;;;;;;;;;;;;;;;;;5076479;28;20375;-65
2022/09/16 11:55:07;;;;;;;;;;;;;;;;;;5081642;28;20006;-64
2022/09/16 11:57:32;;;;;;;;;;;;;;;;;;5056695;28;19965;-70
2022/09/16 11:59:57;;;;;;;;;;;;;;;;;;5080149;28;20275;-68
2022/09/16 12:02:22;;;;;;;;;;;;;;;;;;5094232;28;20394;-67
2022/09/16 12:04:47;;;;;;;;;;;;;;;;;;5089923;28;19909;-69
2022/09/16 12:07:13;;;;;;;;;;;;;;;;;;5064469;28;20029;-68
2022/09/16 12:09:38;;;;;;;;;;;;;;;;;;5059897;28;20005;-67
2022/09/16 12:12:03;;;;;;;;;;;;;;;;;;5092326;28;20002;-67
2022/09/16 12:14:28;;;;;;;;;;;;;;;;;;5066494;28;19916;-68
2022/09/16 12:16:53;;;;;;;;;;;;;;;;;;5089509;28;20017;-67
2022/09/16 12:19:19;;;;;;;;;;;;;;;;;;5100277;28;19919;-68
2022/09/16 12:21:44;;;;;;;;;;;;;;;;;;5089678;28;20300;-67
2022/09/16 12:24:09;;;;;;;;;;;;;;;;;;5089409;28;19916;-65
2022/09/16 12:26:35;;;;;;;;;;;;;;;;;;5072819;28;19947;-67
2022/09/16 12:29:00;;;;;;;;;;;;;;;;;;5074097;28;20365;-67
2022/09/16 12:31:25;;;;;;;;;;;;;;;;;;5082075;28;19999;-68
2022/09/16 12:33:50;;;;;;;;;;;;;;;;;;5074927;28;20649;-67
2022/09/16 12:36:15;;;;;;;;;;;;;;;;;;5079369;28;19957;-67
2022/09/16 12:38:41;;;;;;;;;;;;;;;;;;5089321;28;19920;-67
2022/09/16 12:41:06;;;;;;;;;;;;;;;;;;5075054;28;19916;-70
2022/09/16 12:43:31;;;;;;;;;;;;;;;;;;5073917;28;19916;-64
2022/09/16 12:45:56;;;;;;;;;;;;;;;;;;5077834;28;20012;-65
2022/09/16 12:48:21;;;;;;;;;;;;;;;;;;5099179;28;19969;-67
2022/09/16 12:50:46;;;;;;;;;;;;;;;;;;5098249;28;19914;-65
2022/09/16 12:53:11;;;;;;;;;;;;;;;;;;5096407;28;20321;-67
2022/09/16 12:55:37;;;;;;;;;;;;;;;;;;5075523;28;20395;-67
2022/09/16 12:58:02;;;;;;;;;;;;;;;;;;5093899;28;20379;-66
2022/09/16 13:00:27;;;;;;;;;;;;;;;;;;5094598;28;20283;-66
2022/09/16 13:02:52;;;;;;;;;;;;;;;;;;5091444;28;19993;-65
2022/09/16 13:05:17;;;;;;;;;;;;;;;;;;5090836;28;19923;-67
2022/09/16 13:07:42;;;;;;;;;;;;;;;;;;5072919;28;19912;-64
2022/09/16 13:10:08;;;;;;;;;;;;;;;;;;5078661;28;19916;-66
2022/09/16 13:12:33;;;;;;;;;;;;;;;;;;5079165;28;19958;-68
2022/09/16 13:14:58;;;;;;;;;;;;;;;;;;5064492;28;19916;-68
2022/09/16 13:17:23;;;;;;;;;;;;;;;;;;5086272;28;19969;-68
2022/09/16 13:19:48;;;;;;;;;;;;;;;;;;5079550;28;19909;-69
2022/09/16 13:22:13;;;;;;;;;;;;;;;;;;5091122;28;19914;-68
2022/09/16 13:24:38;;;;;;;;;;;;;;;;;;5082174;28;20360;-68
2022/09/16 13:27:04;;;;;;;;;;;;;;;;;;5077612;28;20007;-69
2022/09/16 13:29:29;;;;;;;;;;;;;;;;;;5073633;28;19909;-68
2022/09/16 13:31:54;;;;;;;;;;;;;;;;;;5072688;28;20402;-68
2022/09/16 13:34:20;;;;;;;;;;;;;;;;;;5078801;28;19916;-68
2022/09/16 13:36:45;;;;;;;;;;;;;;;;;;5073419;28;20388;-67
2022/09/16 13:39:10;;;;;;;;;;;;;;;;;;5072921;28;19908;-69
2022/09/16 13:41:36;;;;;;;;;;;;;;;;;;5073283;28;20330;-68
2022/09/16 13:44:01;;;;;;;;;;;;;;;;;;5086884;28;19920;-69
2022/09/16 13:46:26;;;;;;;;;;;;;;;;;;5068237;28;19919;-68
2022/09/16 13:48:51;;;;;;;;;;;;;;;;;;5082926;28;19920;-68
2022/09/16 13:51:16;;;;;;;;;;;;;;;;;;5054665;28;19992;-66
2022/09/16 13:53:41;;;;;;;;;;;;;;;;;;5070765;28;19979;-68
2022/09/16 13:56:07;;;;;;;;;;;;;;;;;;5054097;28;20276;-68
2022/09/16 13:58:32;;;;;;;;;;;;;;;;;;5055146;28;20022;-69
2022/09/16 14:00:57;;;;;;;;;;;;;;;;;;5068293;28;19913;-68
2022/09/16 14:03:22;;;;;;;;;;;;;;;;;;5084703;28;19992;-68
2022/09/16 14:05:47;;;;;;;;;;;;;;;;;;5078960;28;20368;-68
2022/09/16 14:08:13;;;;;;;;;;;;;;;;;;5082792;28;20682;-68
2022/09/16 14:10:38;;;;;;;;;;;;;;;;;;5080078;28;19985;-69
2022/09/16 14:13:03;;;;;;;;;;;;;;;;;;5085698;28;19919;-67
2022/09/16 14:15:28;;;;;;;;;;;;;;;;;;5075432;28;19923;-67
2022/09/16 14:17:53;;;;;;;;;;;;;;;;;;5071042;28;20390;-66
2022/09/16 14:20:18;;;;;;;;;;;;;;;;;;5073185;28;19912;-67
2022/09/16 14:22:44;;;;;;;;;;;;;;;;;;5054931;28;19912;-67
2022/09/16 14:25:09;;;;;;;;;;;;;;;;;;5079568;28;19912;-65
2022/09/16 14:27:35;;;;;;;;;;;;;;;;;;5060397;28;20670;-66
2022/09/16 14:30:00;;;;;;;;;;;;;;;;;;5072046;28;19914;-69
2022/09/16 14:32:25;;;;;;;;;;;;;;;;;;5090514;28;19908;-69
2022/09/16 14:34:51;;;;;;;;;;;;;;;;;;5064671;28;19963;-69
2022/09/16 14:37:16;;;;;;;;;;;;;;;;;;5080914;28;19951;-69
2022/09/16 14:39:41;;;;;;;;;;;;;;;;;;5067816;28;19917;-68
2022/09/16 14:42:07;;;;;;;;;;;;;;;;;;5061725;28;20443;-69
2022/09/16 14:44:32;;;;;;;;;;;;;;;;;;5073307;28;20356;-69
2022/09/16 14:46:57;;;;;;;;;;;;;;;;;;5088669;28;20014;-69
2022/09/16 14:49:22;;;;;;;;;;;;;;;;;;5098567;28;19974;-69
2022/09/16 14:51:47;;;;;;;;;;;;;;;;;;5084841;28;19923;-69
2022/09/16 14:54:12;;;;;;;;;;;;;;;;;;5071242;28;19967;-70
2022/09/16 14:56:37;;;;;;;;;;;;;;;;;;5078801;28;19912;-69
2022/09/16 14:59:03;;;;;;;;;;;;;;;;;;5072240;28;20542;-70
2022/09/16 15:01:28;;;;;;;;;;;;;;;;;;5072495;28;19908;-68
2022/09/16 15:03:53;;;;;;;;;;;;;;;;;;5083246;28;20034;-70
2022/09/16 15:06:18;;;;;;;;;;;;;;;;;;5086377;28;19965;-68
2022/09/16 15:08:43;;;;;;;;;;;;;;;;;;5083117;28;20456;-69
2022/09/16 15:11:08;;;;;;;;;;;;;;;;;;5092597;28;19953;-66
2022/09/16 15:13:34;;;;;;;;;;;;;;;;;;5082877;28;20113;-62
2022/09/16 15:15:59;;;;;;;;;;;;;;;;;;5076926;28;19920;-70
2022/09/16 15:18:25;;;;;;;;;;;;;;;;;;5054924;28;19916;-70
2022/09/16 15:20:50;;;;;;;;;;;;;;;;;;5071517;28;20305;-69
2022/09/16 15:23:16;;;;;;;;;;;;;;;;;;5059893;28;19926;-69
2022/09/16 15:25:42;;;;;;;;;;;;;;;;;;5067924;28;19923;-69
2022/09/16 15:28:07;;;;;;;;;;;;;;;;;;5073967;28;20027;-69
2022/09/16 15:30:32;;;;;;;;;;;;;;;;;;5071769;28;19916;-70
2022/09/16 15:32:57;;;;;;;;;;;;;;;;;;5070593;28;19913;-69
2022/09/16 15:35:22;;;;;;;;;;;;;;;;;;5040923;28;20285;-68
2022/09/16 15:37:48;;;;;;;;;;;;;;;;;;5059958;28;19940;-68
2022/09/16 15:40:13;;;;;;;;;;;;;;;;;;5054289;28;19963;-69
2022/09/16 15:42:38;;;;;;;;;;;;;;;;;;5057561;28;19913;-69
2022/09/16 15:45:03;;;;;;;;;;;;;;;;;;5056053;28;20148;-68
2022/09/16 15:47:28;;;;;;;;;;;;;;;;;;5065509;28;20277;-68
2022/09/16 15:49:54;;;;;;;;;;;;;;;;;;5051301;28;20292;-68
2022/09/16 15:52:19;;;;;;;;;;;;;;;;;;5084680;28;19908;-68
2022/09/16 15:54:44;;;;;;;;;;;;;;;;;;5040374;28;19917;-68
2022/09/16 15:57:14;;;;;;;;;;;;;;;;;;5063210;28;19920;-68
2022/09/16 15:59:39;;;;;;;;;;;;;;;;;;5055506;28;19909;-69
2022/09/16 16:02:06;;;;;;;;;;;;;;;;;;5040877;28;20277;-68
2022/09/16 16:04:31;;;;;;;;;;;;;;;;;;5053676;28;20390;-69
2022/09/16 16:06:56;;;;;;;;;;;;;;;;;;5062675;28;20011;-68
2022/09/16 16:09:21;;;;;;;;;;;;;;;;;;5062539;28;19921;-69
2022/09/16 16:11:47;;;;;;;;;;;;;;;;;;5050750;28;19912;-68
2022/09/16 16:14:12;;;;;;;;;;;;;;;;;;5067271;28;20025;-68
2022/09/16 16:16:38;;;;;;;;;;;;;;;;;;5070638;28;19920;-68
2022/09/16 16:19:05;;;;;;;;;;;;;;;;;;5081973;28;19916;-68
2022/09/16 16:21:30;;;;;;;;;;;;;;;;;;5084217;28;19959;-69
2022/09/16 16:23:56;;;;;;;;;;;;;;;;;;5090660;28;20372;-70
2022/09/16 16:26:21;;;;;;;;;;;;;;;;;;5075719;28;19918;-69
2022/09/16 16:28:46;;;;;;;;;;;;;;;;;;5081022;28;19962;-68
2022/09/16 16:31:11;;;;;;;;;;;;;;;;;;5075037;28;19916;-68